Time;durP1;ratioP1;P1;durP2;ratioP2;P2;SDS_P1;SDS_P2;PMS_P1;PMS_P2;Temp;Humidity;BMP_temperature;BMP_pressure;BME280_temperature;BME280_humidity;BME280_pressure;Samples;Min_cycle;Max_cycle;Signal;HPM_P1;HPM_P2
2021/08/29 00:00:05;;;;;;;5.57;4.20;;;;;;;;;;5052286;28;20037;-59
2021/08/29 00:02:31;;;;;;;7.45;5.30;;;;;;;;;;5048863;28;20039;-59
2021/08/29 00:04:56;;;;;;;7.63;4.47;;;;;;;;;;5055626;28;20024;-59
2021/08/29 00:07:22;;;;;;;7.35;4.55;;;;;;;;;;5047028;28;20033;-59
2021/08/29 00:09:47;;;;;;;6.60;4.28;;;;;;;;;;5065290;28;20032;-59
2021/08/29 00:12:12;;;;;;;6.57;4.35;;;;;;;;;;5051223;28;20032;-59
2021/08/29 00:14:38;;;;;;;5.60;4.07;;;;;;;;;;5049390;28;20083;-59
2021/08/29 00:17:03;;;;;;;6.95;4.43;;;;;;;;;;5048751;28;20035;-59
2021/08/29 00:19:29;;;;;;;5.22;4.10;;;;;;;;;;5050002;28;20031;-59
2021/08/29 00:21:54;;;;;;;6.68;4.65;;;;;;;;;;5049254;28;20032;-59
2021/08/29 00:24:20;;;;;;;4.85;4.10;;;;;;;;;;5050139;28;20172;-59
2021/08/29 00:26:45;;;;;;;7.28;4.25;;;;;;;;;;5052920;28;20047;-59
2021/08/29 00:29:10;;;;;;;7.15;4.53;;;;;;;;;;5048698;28;20065;-59
2021/08/29 00:31:36;;;;;;;6.85;4.55;;;;;;;;;;5051484;28;20025;-59
2021/08/29 00:34:01;;;;;;;7.25;4.07;;;;;;;;;;5049113;28;20025;-59
2021/08/29 00:36:27;;;;;;;6.25;4.05;;;;;;;;;;5048728;28;20041;-59
2021/08/29 00:38:52;;;;;;;6.65;4.50;;;;;;;;;;5048546;28;20035;-59
2021/08/29 00:41:17;;;;;;;7.60;4.53;;;;;;;;;;5048735;28;20025;-59
2021/08/29 00:43:43;;;;;;;6.00;4.38;;;;;;;;;;5050272;28;20040;-59
2021/08/29 00:46:09;;;;;;;5.55;3.78;;;;;;;;;;5049128;28;20017;-59
2021/08/29 00:48:35;;;;;;;6.75;4.30;;;;;;;;;;5062498;28;20037;-59
2021/08/29 00:51:00;;;;;;;7.30;4.13;;;;;;;;;;5051214;28;20391;-59
2021/08/29 00:53:26;;;;;;;6.35;4.32;;;;;;;;;;5047903;28;20100;-58
2021/08/29 00:55:52;;;;;;;5.57;4.15;;;;;;;;;;5047924;28;20028;-60
2021/08/29 00:58:22;;;;;;;6.13;4.07;;;;;;;;;;5048477;28;20029;-60
2021/08/29 01:00:50;;;;;;;7.45;4.53;;;;;;;;;;5051057;28;20056;-60
2021/08/29 01:03:20;;;;;;;6.93;4.68;;;;;;;;;;5047120;28;20031;-60
2021/08/29 01:05:58;;;;;;;7.68;5.28;;;;;;;;;;5047494;28;20024;-60
2021/08/29 01:08:29;;;;;;;9.40;5.32;;;;;;;;;;5047583;28;20492;-60
2021/08/29 01:10:57;;;;;;;7.43;5.65;;;;;;;;;;5046932;28;20124;-60
2021/08/29 01:13:44;;;;;;;11.13;5.78;;;;;;;;;;5047747;28;20036;-60
2021/08/29 01:16:13;;;;;;;7.43;4.82;;;;;;;;;;5049688;28;20028;-60
2021/08/29 01:18:40;;;;;;;;;;;;;;;;;;5048158;28;20040;-60
2021/08/29 01:21:19;;;;;;;10.10;5.47;;;;;;;;;;5048865;28;19913;-60
2021/08/29 01:24:05;;;;;;;8.82;5.47;;;;;;;;;;5049155;28;20081;-59
2021/08/29 01:26:50;;;;;;;10.18;6.13;;;;;;;;;;5044317;28;20045;-59
2021/08/29 01:29:18;;;;;;;11.38;7.00;;;;;;;;;;5045565;28;20466;-59
2021/08/29 01:31:44;;;;;;;11.48;6.68;;;;;;;;;;5050560;28;20028;-59
2021/08/29 01:34:16;;;;;;;13.32;7.80;;;;;;;;;;5048784;28;20412;-59
2021/08/29 01:36:43;;;;;;;12.90;7.20;;;;;;;;;;5046749;28;20533;-59
2021/08/29 01:39:09;;;;;;;14.27;7.38;;;;;;;;;;5045772;28;20127;-59
2021/08/29 01:41:39;;;;;;;15.25;8.35;;;;;;;;;;5046930;28;20458;-59
2021/08/29 01:44:06;;;;;;;12.30;7.40;;;;;;;;;;5047793;28;20024;-59
2021/08/29 01:46:33;;;;;;;16.13;8.27;;;;;;;;;;5049077;28;20041;-60
2021/08/29 01:49:01;;;;;;;13.00;7.95;;;;;;;;;;5050265;28;20036;-59
2021/08/29 01:51:27;;;;;;;13.38;7.55;;;;;;;;;;5047382;28;20091;-60
2021/08/29 01:53:52;;;;;;;13.23;7.00;;;;;;;;;;5048792;28;20292;-60
2021/08/29 01:56:18;;;;;;;14.75;7.97;;;;;;;;;;5048044;28;20027;-60
2021/08/29 01:58:43;;;;;;;12.77;7.95;;;;;;;;;;5048132;28;20078;-60
2021/08/29 02:01:11;;;;;;;14.75;8.18;;;;;;;;;;5047102;28;20527;-60
2021/08/29 02:03:39;;;;;;;13.10;7.43;;;;;;;;;;5044475;28;20471;-60
2021/08/29 02:06:24;;;;;;;12.75;6.72;;;;;;;;;;5055646;28;20069;-58
2021/08/29 02:09:10;;;;;;;14.10;7.45;;;;;;;;;;5045416;28;20032;-59
2021/08/29 02:11:49;;;;;;;13.50;6.97;;;;;;;;;;5048796;28;20102;-59
2021/08/29 02:14:20;;;;;;;12.43;7.47;;;;;;;;;;5045968;28;20033;-59
2021/08/29 02:16:46;;;;;;;12.15;7.22;;;;;;;;;;5048347;28;20124;-59
2021/08/29 02:19:19;;;;;;;12.68;6.85;;;;;;;;;;5044972;28;20107;-58
2021/08/29 02:21:46;;;;;;;12.65;6.85;;;;;;;;;;5048418;28;20032;-58
2021/08/29 02:24:11;;;;;;;12.48;6.45;;;;;;;;;;5049453;28;20025;-59
2021/08/29 02:26:38;;;;;;;9.50;6.50;;;;;;;;;;5047653;28;20082;-59
2021/08/29 02:29:04;;;;;;;12.02;6.95;;;;;;;;;;5046513;28;20144;-58
2021/08/29 02:31:29;;;;;;;12.15;7.03;;;;;;;;;;5045999;28;20547;-59
2021/08/29 02:33:55;;;;;;;11.25;7.05;;;;;;;;;;5047173;28;20392;-59
2021/08/29 02:36:20;;;;;;;11.52;7.07;;;;;;;;;;5041663;28;20511;-59
2021/08/29 02:38:49;;;;;;;11.25;6.13;;;;;;;;;;5047714;28;20423;-59
2021/08/29 02:41:16;;;;;;;12.75;6.00;;;;;;;;;;5045822;28;20029;-59
2021/08/29 02:43:44;;;;;;;9.35;5.70;;;;;;;;;;5047850;28;20436;-59
2021/08/29 02:46:09;;;;;;;8.52;5.93;;;;;;;;;;5049082;28;20028;-59
2021/08/29 02:48:35;;;;;;;9.98;6.53;;;;;;;;;;5046248;28;20097;-59
2021/08/29 02:51:02;;;;;;;12.20;6.55;;;;;;;;;;5047074;28;20480;-59
2021/08/29 02:53:27;;;;;;;11.30;6.20;;;;;;;;;;5049474;28;20045;-59
2021/08/29 02:55:55;;;;;;;11.88;6.40;;;;;;;;;;5047920;28;20037;-58
2021/08/29 02:58:21;;;;;;;11.02;6.10;;;;;;;;;;5047269;28;20449;-58
2021/08/29 03:00:46;;;;;;;11.05;6.55;;;;;;;;;;5046129;28;20074;-59
2021/08/29 03:03:12;;;;;;;11.40;6.28;;;;;;;;;;5044142;28;20257;-58
2021/08/29 03:05:38;;;;;;;11.98;6.40;;;;;;;;;;5027981;28;20108;-60
2021/08/29 03:08:04;;;;;;;10.75;6.80;;;;;;;;;;5047624;28;20526;-59
2021/08/29 03:10:30;;;;;;;12.43;6.55;;;;;;;;;;5050441;28;20029;-60
2021/08/29 03:12:56;;;;;;;9.95;6.72;;;;;;;;;;5048749;28;20033;-59
2021/08/29 03:15:22;;;;;;;12.00;6.68;;;;;;;;;;5050829;28;20396;-59
2021/08/29 03:17:47;;;;;;;11.30;6.70;;;;;;;;;;5045560;28;20031;-59
2021/08/29 03:20:14;;;;;;;12.40;7.07;;;;;;;;;;5051549;28;20202;-59
2021/08/29 03:22:40;;;;;;;13.23;7.38;;;;;;;;;;5050108;28;20553;-59
2021/08/29 03:25:07;;;;;;;10.75;6.47;;;;;;;;;;5064852;28;20108;-59
2021/08/29 03:27:33;;;;;;;12.73;7.10;;;;;;;;;;5048031;28;20087;-60
2021/08/29 03:29:59;;;;;;;12.73;6.88;;;;;;;;;;5054322;28;20024;-60
2021/08/29 03:32:25;;;;;;;14.13;7.70;;;;;;;;;;5050012;28;20458;-60
2021/08/29 03:34:53;;;;;;;12.88;7.15;;;;;;;;;;5049285;28;20628;-60
2021/08/29 03:37:21;;;;;;;13.05;7.43;;;;;;;;;;5050239;28;20017;-60
2021/08/29 03:39:47;;;;;;;13.07;7.38;;;;;;;;;;5050782;28;20394;-60
2021/08/29 03:42:14;;;;;;;13.77;7.57;;;;;;;;;;5050128;28;20025;-60
2021/08/29 03:44:39;;;;;;;13.77;7.43;;;;;;;;;;5050926;28;20275;-60
2021/08/29 03:47:05;;;;;;;14.10;7.63;;;;;;;;;;5047550;28;20051;-59
2021/08/29 03:49:31;;;;;;;14.00;7.80;;;;;;;;;;5049313;28;20505;-60
2021/08/29 03:51:58;;;;;;;13.05;7.25;;;;;;;;;;5050874;28;20024;-59
2021/08/29 03:54:24;;;;;;;13.02;7.55;;;;;;;;;;5050306;28;20040;-59
2021/08/29 03:56:49;;;;;;;13.88;7.53;;;;;;;;;;5049636;28;20447;-59
2021/08/29 03:59:15;;;;;;;15.82;8.10;;;;;;;;;;5047238;28;20082;-59
2021/08/29 04:01:40;;;;;;;12.30;7.30;;;;;;;;;;5050213;28;20140;-59
2021/08/29 04:04:06;;;;;;;11.65;7.13;;;;;;;;;;5050427;28;20480;-59
2021/08/29 04:06:36;;;;;;;12.57;7.00;;;;;;;;;;5047134;28;20068;-59
2021/08/29 04:09:06;;;;;;;13.73;7.55;;;;;;;;;;5049873;28;20048;-59
2021/08/29 04:11:33;;;;;;;12.13;6.78;;;;;;;;;;5050172;28;20462;-59
2021/08/29 04:13:59;;;;;;;11.63;6.70;;;;;;;;;;5049120;28;20396;-59
2021/08/29 04:16:26;;;;;;;14.23;7.20;;;;;;;;;;5048459;28;20509;-59
2021/08/29 04:18:51;;;;;;;12.88;7.72;;;;;;;;;;5047384;28;20126;-59
2021/08/29 04:21:23;;;;;;;11.40;6.85;;;;;;;;;;5050964;28;20471;-59
2021/08/29 04:23:49;;;;;;;12.93;7.30;;;;;;;;;;5048838;28;20072;-59
2021/08/29 04:26:14;;;;;;;12.40;7.90;;;;;;;;;;5049657;28;20017;-59
2021/08/29 04:28:40;;;;;;;14.88;7.28;;;;;;;;;;5051743;28;20035;-59
2021/08/29 04:31:22;;;;;;;14.23;7.78;;;;;;;;;;5048553;28;20029;-59
2021/08/29 04:33:47;;;;;;;13.05;6.90;;;;;;;;;;5048551;28;20056;-60
2021/08/29 04:36:12;;;;;;;16.27;8.07;;;;;;;;;;5047670;28;20075;-60
2021/08/29 04:38:38;;;;;;;20.63;8.88;;;;;;;;;;5047637;28;20088;-60
2021/08/29 04:41:04;;;;;;;13.00;7.40;;;;;;;;;;5050326;28;20467;-59
2021/08/29 04:43:30;;;;;;;12.93;7.38;;;;;;;;;;5050240;28;20020;-59
2021/08/29 04:45:56;;;;;;;11.93;6.63;;;;;;;;;;5048509;28;20384;-59
2021/08/29 04:48:21;;;;;;;12.43;7.43;;;;;;;;;;5047300;28;20232;-59
2021/08/29 04:50:47;;;;;;;11.95;6.85;;;;;;;;;;5047575;28;20610;-59
2021/08/29 04:53:12;;;;;;;12.70;7.47;;;;;;;;;;5051906;28;20112;-59
2021/08/29 04:55:38;;;;;;;13.73;7.25;;;;;;;;;;5051441;28;20033;-60
2021/08/29 04:58:03;;;;;;;12.57;6.65;;;;;;;;;;5046585;28;20040;-60
2021/08/29 05:00:29;;;;;;;11.05;6.63;;;;;;;;;;5046986;28;20037;-59
2021/08/29 05:02:54;;;;;;;11.30;6.95;;;;;;;;;;5048912;28;20079;-59
2021/08/29 05:05:20;;;;;;;12.73;7.13;;;;;;;;;;5051060;28;20111;-59
2021/08/29 05:07:45;;;;;;;11.95;6.68;;;;;;;;;;5051027;28;20032;-60
2021/08/29 05:10:10;;;;;;;11.02;6.88;;;;;;;;;;5047201;28;20029;-58
2021/08/29 05:12:36;;;;;;;11.43;6.60;;;;;;;;;;5047902;28;20024;-58
2021/08/29 05:15:01;;;;;;;12.38;7.10;;;;;;;;;;5054132;28;20458;-58
2021/08/29 05:17:27;;;;;;;13.15;6.60;;;;;;;;;;5047947;28;20025;-58
2021/08/29 05:19:52;;;;;;;12.27;6.82;;;;;;;;;;5046771;28;20024;-58
2021/08/29 05:22:18;;;;;;;11.93;6.53;;;;;;;;;;5046603;28;20491;-58
2021/08/29 05:24:43;;;;;;;11.73;7.15;;;;;;;;;;5049130;28;20028;-58
2021/08/29 05:27:08;;;;;;;19.02;10.48;;;;;;;;;;5050572;28;20114;-58
2021/08/29 05:29:34;;;;;;;22.13;11.02;;;;;;;;;;5046178;28;20028;-59
2021/08/29 05:31:59;;;;;;;14.15;8.52;;;;;;;;;;5046525;28;20029;-58
2021/08/29 05:34:25;;;;;;;13.07;8.10;;;;;;;;;;5047925;28;20025;-58
2021/08/29 05:36:50;;;;;;;18.92;8.60;;;;;;;;;;5049473;28;20060;-58
2021/08/29 05:39:16;;;;;;;16.27;9.60;;;;;;;;;;5045283;28;20031;-58
2021/08/29 05:41:41;;;;;;;10.35;6.55;;;;;;;;;;5046758;28;20094;-59
2021/08/29 05:44:07;;;;;;;11.38;6.30;;;;;;;;;;5048428;28;20037;-58
2021/08/29 05:46:32;;;;;;;8.98;5.93;;;;;;;;;;5064875;28;20025;-59
2021/08/29 05:48:57;;;;;;;8.68;5.82;;;;;;;;;;5048267;28;20036;-59
2021/08/29 05:51:23;;;;;;;11.05;6.32;;;;;;;;;;5047896;28;20032;-59
2021/08/29 05:53:48;;;;;;;12.88;6.70;;;;;;;;;;5043730;28;20060;-58
2021/08/29 05:56:13;;;;;;;12.85;7.10;;;;;;;;;;5052370;28;20136;-58
2021/08/29 05:58:39;;;;;;;10.23;6.05;;;;;;;;;;5047455;28;20025;-58
2021/08/29 06:01:04;;;;;;;17.88;9.43;;;;;;;;;;5047158;28;20025;-58
2021/08/29 06:03:31;;;;;;;12.20;6.70;;;;;;;;;;5046113;28;20020;-58
2021/08/29 06:05:57;;;;;;;14.15;7.95;;;;;;;;;;5047663;28;20476;-59
2021/08/29 06:08:23;;;;;;;13.43;6.97;;;;;;;;;;5046973;28;20436;-58
2021/08/29 06:10:48;;;;;;;11.05;7.22;;;;;;;;;;5045194;28;20096;-58
2021/08/29 06:13:14;;;;;;;10.85;6.57;;;;;;;;;;5049554;28;20116;-58
2021/08/29 06:15:39;;;;;;;11.93;7.32;;;;;;;;;;5047552;28;20051;-58
2021/08/29 06:18:05;;;;;;;11.55;7.32;;;;;;;;;;5048087;28;20039;-58
2021/08/29 06:20:30;;;;;;;13.20;7.18;;;;;;;;;;5061951;28;20032;-58
2021/08/29 06:22:56;;;;;;;11.60;6.97;;;;;;;;;;5046325;28;20097;-58
2021/08/29 06:25:21;;;;;;;10.98;7.18;;;;;;;;;;5048929;28;20017;-58
2021/08/29 06:27:47;;;;;;;11.75;6.97;;;;;;;;;;5047137;28;20028;-58
2021/08/29 06:30:12;;;;;;;12.82;7.07;;;;;;;;;;5046498;28;20392;-59
2021/08/29 06:32:37;;;;;;;12.50;6.88;;;;;;;;;;5047670;28;20105;-58
2021/08/29 06:35:03;;;;;;;10.25;6.32;;;;;;;;;;5048820;28;20373;-58
2021/08/29 06:37:29;;;;;;;11.85;6.78;;;;;;;;;;5047803;28;20052;-58
2021/08/29 06:39:54;;;;;;;11.82;6.10;;;;;;;;;;5045433;28;20368;-58
2021/08/29 06:42:20;;;;;;;10.15;6.97;;;;;;;;;;5049281;28;20448;-58
2021/08/29 06:44:45;;;;;;;10.93;7.00;;;;;;;;;;5054622;28;20646;-58
2021/08/29 06:47:10;;;;;;;8.32;5.57;;;;;;;;;;5050634;28;20094;-58
2021/08/29 06:49:36;;;;;;;8.65;5.57;;;;;;;;;;5050330;28;20024;-58
2021/08/29 06:52:02;;;;;;;9.43;5.93;;;;;;;;;;5050293;28;20048;-59
2021/08/29 06:54:27;;;;;;;8.35;5.80;;;;;;;;;;5050679;28;20033;-59
2021/08/29 06:56:52;;;;;;;9.27;6.20;;;;;;;;;;5052072;28;20025;-59
2021/08/29 06:59:18;;;;;;;9.15;5.93;;;;;;;;;;5049616;28;20100;-58
2021/08/29 07:01:43;;;;;;;8.18;5.60;;;;;;;;;;5050003;28;20444;-59
2021/08/29 07:04:09;;;;;;;8.90;5.85;;;;;;;;;;5051073;28;20013;-58
2021/08/29 07:06:35;;;;;;;7.95;5.45;;;;;;;;;;5057209;28;20029;-58
2021/08/29 07:09:01;;;;;;;8.50;5.60;;;;;;;;;;5050299;28;20031;-58
2021/08/29 07:11:26;;;;;;;10.95;6.00;;;;;;;;;;5049125;28;20033;-58
2021/08/29 07:13:52;;;;;;;14.63;9.07;;;;;;;;;;5052769;28;20519;-58
2021/08/29 07:16:17;;;;;;;36.17;19.15;;;;;;;;;;5064625;28;20025;-58
2021/08/29 07:18:42;;;;;;;15.02;9.30;;;;;;;;;;5056650;28;20118;-58
2021/08/29 07:21:08;;;;;;;10.25;6.13;;;;;;;;;;5049862;28;20027;-58
2021/08/29 07:23:33;;;;;;;8.30;6.00;;;;;;;;;;5050687;28;20032;-59
2021/08/29 07:25:59;;;;;;;8.43;5.32;;;;;;;;;;5050714;28;20036;-59
2021/08/29 07:28:24;;;;;;;8.73;6.00;;;;;;;;;;5050356;28;20082;-59
2021/08/29 07:30:49;;;;;;;9.80;6.30;;;;;;;;;;5050072;28;20020;-59
2021/08/29 07:33:15;;;;;;;9.57;6.03;;;;;;;;;;5050157;28;20388;-59
2021/08/29 07:35:40;;;;;;;8.80;5.60;;;;;;;;;;5049258;28;20484;-59
2021/08/29 07:38:06;;;;;;;8.65;5.53;;;;;;;;;;5048747;28;20047;-59
2021/08/29 07:40:32;;;;;;;8.00;5.55;;;;;;;;;;5050500;28;20028;-59
2021/08/29 07:42:58;;;;;;;6.75;5.25;;;;;;;;;;5050756;28;20016;-59
2021/08/29 07:45:26;;;;;;;7.47;5.38;;;;;;;;;;5049850;28;20078;-59
2021/08/29 07:47:52;;;;;;;7.03;4.45;;;;;;;;;;5050353;28;20025;-59
2021/08/29 07:50:23;;;;;;;5.60;4.03;;;;;;;;;;5053932;28;20546;-59
2021/08/29 07:52:49;;;;;;;5.82;4.30;;;;;;;;;;5051035;28;20121;-59
2021/08/29 07:55:14;;;;;;;3.97;3.05;;;;;;;;;;5053350;28;20108;-59
2021/08/29 07:57:40;;;;;;;3.97;3.00;;;;;;;;;;5049571;28;20545;-59
2021/08/29 08:00:06;;;;;;;4.32;3.25;;;;;;;;;;5051348;28;20028;-59
2021/08/29 08:02:32;;;;;;;4.03;2.85;;;;;;;;;;5047371;28;20075;-59
2021/08/29 08:04:57;;;;;;;4.93;3.20;;;;;;;;;;5048498;28;20021;-59
2021/08/29 08:07:23;;;;;;;2.53;2.33;;;;;;;;;;5048155;28;20408;-59
2021/08/29 08:09:49;;;;;;;3.00;2.42;;;;;;;;;;5049749;28;20406;-59
2021/08/29 08:12:14;;;;;;;3.15;2.60;;;;;;;;;;5050869;28;20033;-59
2021/08/29 08:14:39;;;;;;;3.22;2.28;;;;;;;;;;5049400;28;20042;-59
2021/08/29 08:17:05;;;;;;;2.38;1.95;;;;;;;;;;5052699;28;20617;-59
2021/08/29 08:19:30;;;;;;;2.90;2.00;;;;;;;;;;5044515;28;20173;-59
2021/08/29 08:21:56;;;;;;;2.97;2.20;;;;;;;;;;5048796;28;20043;-59
2021/08/29 08:24:21;;;;;;;2.78;2.30;;;;;;;;;;5049040;28;20029;-58
2021/08/29 08:26:46;;;;;;;3.65;2.28;;;;;;;;;;5049380;28;20035;-59
2021/08/29 08:29:12;;;;;;;2.40;2.00;;;;;;;;;;5048039;28;20433;-59
2021/08/29 08:31:37;;;;;;;2.10;1.90;;;;;;;;;;5050992;28;20036;-59
2021/08/29 08:34:03;;;;;;;3.00;2.20;;;;;;;;;;5047994;28;20028;-59
2021/08/29 08:36:28;;;;;;;3.42;2.17;;;;;;;;;;5050955;28;20452;-58
2021/08/29 08:38:53;;;;;;;2.70;2.05;;;;;;;;;;5049849;28;20950;-59
2021/08/29 08:41:19;;;;;;;3.00;2.08;;;;;;;;;;5048987;28;20040;-59
2021/08/29 08:43:45;;;;;;;2.45;1.90;;;;;;;;;;5048387;28;20028;-58
2021/08/29 08:46:11;;;;;;;3.17;2.30;;;;;;;;;;5049052;28;20701;-58
2021/08/29 08:48:38;;;;;;;3.08;2.30;;;;;;;;;;5051899;28;20076;-58
2021/08/29 08:51:07;;;;;;;4.50;2.80;;;;;;;;;;5049319;28;20036;-58
2021/08/29 08:53:35;;;;;;;9.57;4.70;;;;;;;;;;5046056;28;20166;-58
2021/08/29 08:56:02;;;;;;;7.57;4.25;;;;;;;;;;5046051;28;20052;-59
2021/08/29 08:58:29;;;;;;;6.90;3.33;;;;;;;;;;5051588;28;20032;-59
2021/08/29 09:00:54;;;;;;;5.45;3.25;;;;;;;;;;5048475;28;20047;-58
2021/08/29 09:03:20;;;;;;;4.10;2.63;;;;;;;;;;5045482;28;20484;-58
2021/08/29 09:05:47;;;;;;;4.15;2.70;;;;;;;;;;5045966;28;20321;-59
2021/08/29 09:08:12;;;;;;;3.33;2.80;;;;;;;;;;5048103;28;20064;-59
2021/08/29 09:10:40;;;;;;;2.55;2.35;;;;;;;;;;5052190;28;20037;-59
2021/08/29 09:13:06;;;;;;;3.95;2.20;;;;;;;;;;5051398;28;20432;-59
2021/08/29 09:15:32;;;;;;;2.22;1.90;;;;;;;;;;5047504;28;20039;-59
2021/08/29 09:17:59;;;;;;;3.42;2.17;;;;;;;;;;5046083;28;20110;-59
2021/08/29 09:20:37;;;;;;;2.42;2.22;;;;;;;;;;5047562;28;20136;-59
2021/08/29 09:23:13;;;;;;;3.15;2.70;;;;;;;;;;5041340;28;20025;-58
2021/08/29 09:25:42;;;;;;;6.78;4.25;;;;;;;;;;5049425;28;20090;-58
2021/08/29 09:28:14;;;;;;;7.00;3.70;;;;;;;;;;5044667;28;20108;-58
2021/08/29 09:30:43;;;;;;;4.93;3.13;;;;;;;;;;5045931;28;20033;-59
2021/08/29 09:33:08;;;;;;;6.03;2.60;;;;;;;;;;5047707;28;20071;-59
2021/08/29 09:35:35;;;;;;;2.20;2.00;;;;;;;;;;5046560;28;20041;-59
2021/08/29 09:38:03;;;;;;;5.40;3.00;;;;;;;;;;5047774;28;20028;-59
2021/08/29 09:40:36;;;;;;;3.38;3.08;;;;;;;;;;5046109;28;20090;-59
2021/08/29 09:43:04;;;;;;;2.15;1.90;;;;;;;;;;5044598;28;20428;-58
2021/08/29 09:45:31;;;;;;;9.02;5.18;;;;;;;;;;5046224;28;20530;-58
2021/08/29 09:48:03;;;;;;;4.93;3.97;;;;;;;;;;5049194;28;20031;-59
2021/08/29 09:50:30;;;;;;;5.85;5.07;;;;;;;;;;5049701;28;20275;-59
2021/08/29 09:53:04;;;;;;;4.50;3.88;;;;;;;;;;5050073;28;20058;-59
2021/08/29 09:55:37;;;;;;;4.43;3.70;;;;;;;;;;5048849;28;20025;-58
2021/08/29 09:58:22;;;;;;;2.88;2.20;;;;;;;;;;5047390;28;20037;-59
2021/08/29 10:01:12;;;;;;;2.50;2.00;;;;;;;;;;5048156;28;20473;-58
2021/08/29 10:03:47;;;;;;;2.30;1.98;;;;;;;;;;5045324;28;20021;-59
2021/08/29 10:06:22;;;;;;;2.33;2.08;;;;;;;;;;5063669;28;20021;-59
2021/08/29 10:08:50;;;;;;;2.55;1.60;;;;;;;;;;5046219;28;20029;-59
2021/08/29 10:11:16;;;;;;;2.50;1.58;;;;;;;;;;5050206;28;20025;-59
2021/08/29 10:13:42;;;;;;;1.83;1.40;;;;;;;;;;5049279;28;20029;-59
2021/08/29 10:16:08;;;;;;;1.60;1.50;;;;;;;;;;5049820;28;20031;-58
2021/08/29 10:18:37;;;;;;;4.05;2.30;;;;;;;;;;5052805;28;20083;-59
2021/08/29 10:21:03;;;;;;;6.72;3.85;;;;;;;;;;5053865;28;20111;-58
2021/08/29 10:23:29;;;;;;;5.32;2.67;;;;;;;;;;5054827;28;20028;-58
2021/08/29 10:25:58;;;;;;;1.10;1.00;;;;;;;;;;5053424;28;20032;-59
2021/08/29 10:28:27;;;;;;;1.60;1.40;;;;;;;;;;5055394;28;20040;-59
2021/08/29 10:30:56;;;;;;;3.22;2.15;;;;;;;;;;5055248;28;20501;-59
2021/08/29 10:33:22;;;;;;;2.47;1.97;;;;;;;;;;5053729;28;20110;-59
2021/08/29 10:35:49;;;;;;;4.60;2.78;;;;;;;;;;5054275;28;20037;-58
2021/08/29 10:38:17;;;;;;;6.60;2.80;;;;;;;;;;5052607;28;20103;-59
2021/08/29 10:40:43;;;;;;;2.80;1.30;;;;;;;;;;5054584;28;20032;-59
2021/08/29 10:43:08;;;;;;;3.10;1.40;;;;;;;;;;5055142;28;20024;-59
2021/08/29 10:45:34;;;;;;;1.92;1.38;;;;;;;;;;5051981;28;20048;-59
2021/08/29 10:48:01;;;;;;;2.25;1.30;;;;;;;;;;5051073;28;20029;-59
2021/08/29 10:50:27;;;;;;;1.92;1.38;;;;;;;;;;5052451;28;20036;-59
2021/08/29 10:52:53;;;;;;;7.00;3.10;;;;;;;;;;5061664;28;20029;-59
2021/08/29 10:55:19;;;;;;;4.15;2.75;;;;;;;;;;5055078;28;20032;-58
2021/08/29 10:57:47;;;;;;;2.17;1.75;;;;;;;;;;5053838;28;20024;-58
2021/08/29 11:00:30;;;;;;;3.40;2.38;;;;;;;;;;5053069;28;20025;-58
2021/08/29 11:02:56;;;;;;;2.28;1.65;;;;;;;;;;5053363;28;20047;-60
2021/08/29 11:05:27;;;;;;;2.05;1.60;;;;;;;;;;5055635;28;20033;-60
2021/08/29 11:07:54;;;;;;;1.55;1.30;;;;;;;;;;5054064;28;20032;-58
2021/08/29 11:10:37;;;;;;;30.60;13.88;;;;;;;;;;5054288;28;20098;-59
2021/08/29 11:13:27;;;;;;;30.50;15.07;;;;;;;;;;5052177;28;20522;-58
2021/08/29 11:16:15;;;;;;;17.38;8.70;;;;;;;;;;5055495;28;20047;-59
2021/08/29 11:18:59;;;;;;;3.92;2.47;;;;;;;;;;5051113;28;20032;-59
2021/08/29 11:21:28;;;;;;;2.83;1.27;;;;;;;;;;5052309;28;20458;-59
2021/08/29 11:23:53;;;;;;;2.88;1.95;;;;;;;;;;5053521;28;20024;-59
2021/08/29 11:26:33;;;;;;;1.75;1.50;;;;;;;;;;5053086;28;20036;-59
2021/08/29 11:28:58;;;;;;;1.70;1.30;;;;;;;;;;5050450;28;20487;-59
2021/08/29 11:31:49;;;;;;;1.55;1.20;;;;;;;;;;5050716;28;20044;-59
2021/08/29 11:34:14;;;;;;;3.97;2.55;;;;;;;;;;5047416;28;20029;-59
2021/08/29 11:36:40;;;;;;;4.85;3.20;;;;;;;;;;5052045;28;20060;-59
2021/08/29 11:39:34;;;;;;;3.65;2.97;;;;;;;;;;5051887;28;20062;-59
2021/08/29 11:42:15;;;;;;;5.85;3.72;;;;;;;;;;5048097;28;20033;-59
2021/08/29 11:44:41;;;;;;;4.35;3.10;;;;;;;;;;5048278;28;20487;-58
2021/08/29 11:47:07;;;;;;;3.08;2.30;;;;;;;;;;5050976;28;20031;-58
2021/08/29 11:49:33;;;;;;;4.20;3.13;;;;;;;;;;5049901;28;20488;-58
2021/08/29 11:51:58;;;;;;;3.30;2.25;;;;;;;;;;5052920;28;20043;-58
2021/08/29 11:54:24;;;;;;;3.42;3.13;;;;;;;;;;5053127;28;20029;-58
2021/08/29 11:56:49;;;;;;;2.70;2.17;;;;;;;;;;5049023;28;20033;-58
2021/08/29 11:59:27;;;;;;;2.58;2.20;;;;;;;;;;5049156;28;20432;-59
2021/08/29 12:01:56;;;;;;;3.47;2.30;;;;;;;;;;5053921;28;20434;-58
2021/08/29 12:04:22;;;;;;;;;;;;;;;;;;5049677;28;20040;-59
2021/08/29 12:07:01;;;;;;;4.07;2.50;;;;;;;;;;5048419;28;19912;-58
2021/08/29 12:09:28;;;;;;;5.05;2.90;;;;;;;;;;5046352;28;20036;-58
2021/08/29 12:11:54;;;;;;;4.22;3.47;;;;;;;;;;5047713;28;20024;-59
2021/08/29 12:14:28;;;;;;;6.30;4.88;;;;;;;;;;5049868;28;20041;-59
2021/08/29 12:16:55;;;;;;;7.03;5.07;;;;;;;;;;5052822;28;20028;-59
2021/08/29 12:19:25;;;;;;;6.60;4.50;;;;;;;;;;5049194;28;20391;-60
2021/08/29 12:21:51;;;;;;;6.03;4.70;;;;;;;;;;5053896;28;20024;-58
2021/08/29 12:24:32;;;;;;;5.72;4.32;;;;;;;;;;5047840;28;20161;-58
2021/08/29 12:26:59;;;;;;;9.30;5.88;;;;;;;;;;5048191;28;20458;-59
2021/08/29 12:29:25;;;;;;;8.35;6.30;;;;;;;;;;5049993;28;20197;-60
2021/08/29 12:31:50;;;;;;;9.65;6.43;;;;;;;;;;5065251;28;20050;-60
2021/08/29 12:34:24;;;;;;;8.77;6.47;;;;;;;;;;5049120;28;20056;-59
2021/08/29 12:37:04;;;;;;;8.93;6.60;;;;;;;;;;5049237;28;20028;-59
2021/08/29 12:39:30;;;;;;;9.98;7.00;;;;;;;;;;5048085;28;20550;-59
2021/08/29 12:42:13;;;;;;;11.38;7.43;;;;;;;;;;5049382;28;20124;-59
2021/08/29 12:44:38;;;;;;;9.90;7.07;;;;;;;;;;5047102;28;20365;-59
2021/08/29 12:47:04;;;;;;;9.30;6.88;;;;;;;;;;5049412;28;20033;-59
2021/08/29 12:49:30;;;;;;;8.70;6.40;;;;;;;;;;5049548;28;20112;-59
2021/08/29 12:51:55;;;;;;;10.75;5.90;;;;;;;;;;5047663;28;20017;-59
2021/08/29 12:54:21;;;;;;;8.52;5.82;;;;;;;;;;5046631;28;20029;-59
2021/08/29 12:56:52;;;;;;;10.75;6.10;;;;;;;;;;5048905;28;20025;-59
2021/08/29 12:59:25;;;;;;;9.40;6.60;;;;;;;;;;5048119;28;20202;-58
2021/08/29 13:01:53;;;;;;;7.95;6.10;;;;;;;;;;5047669;28;20144;-59
2021/08/29 13:04:29;;;;;;;8.38;6.07;;;;;;;;;;5062975;28;20025;-59
2021/08/29 13:07:05;;;;;;;8.10;6.07;;;;;;;;;;5049461;28;20027;-59
2021/08/29 13:09:34;;;;;;;10.13;6.20;;;;;;;;;;5047959;28;20498;-59
2021/08/29 13:12:03;;;;;;;8.45;6.28;;;;;;;;;;5047685;28;20039;-59
2021/08/29 13:14:36;;;;;;;10.02;6.60;;;;;;;;;;5050918;28;20093;-58
2021/08/29 13:17:18;;;;;;;9.07;6.28;;;;;;;;;;5047401;28;20448;-58
2021/08/29 13:20:04;;;;;;;10.52;6.18;;;;;;;;;;5048478;28;20094;-58
2021/08/29 13:22:42;;;;;;;7.43;5.35;;;;;;;;;;5047432;28;20202;-59
2021/08/29 13:25:16;;;;;;;9.07;5.93;;;;;;;;;;5047305;28;20516;-59
2021/08/29 13:27:43;;;;;;;7.32;4.97;;;;;;;;;;5047981;28;20039;-59
2021/08/29 13:30:10;;;;;;;6.88;5.25;;;;;;;;;;5048410;28;20402;-59
2021/08/29 13:32:36;;;;;;;8.45;4.95;;;;;;;;;;5048057;28;20091;-59
2021/08/29 13:35:12;;;;;;;6.35;4.88;;;;;;;;;;5048268;28;20037;-59
2021/08/29 13:37:42;;;;;;;8.43;5.35;;;;;;;;;;5045285;28;20017;-59
2021/08/29 13:40:10;;;;;;;8.48;5.05;;;;;;;;;;5065391;28;20020;-58
2021/08/29 13:42:37;;;;;;;7.28;5.05;;;;;;;;;;5050634;28;20550;-59
2021/08/29 13:45:09;;;;;;;8.55;5.15;;;;;;;;;;5047651;28;20287;-59
2021/08/29 13:47:35;;;;;;;10.30;5.70;;;;;;;;;;5047480;28;20025;-59
2021/08/29 13:50:00;;;;;;;7.38;5.35;;;;;;;;;;5048271;28;20090;-59
2021/08/29 13:52:34;;;;;;;10.23;6.80;;;;;;;;;;5046804;28;20102;-59
2021/08/29 13:55:00;;;;;;;7.95;5.57;;;;;;;;;;5043805;28;20323;-59
2021/08/29 13:57:25;;;;;;;8.10;5.13;;;;;;;;;;5047364;28;20033;-58
2021/08/29 13:59:51;;;;;;;7.53;5.47;;;;;;;;;;5048968;28;20087;-59
2021/08/29 14:02:16;;;;;;;6.97;4.95;;;;;;;;;;5047924;28;20036;-59
2021/08/29 14:04:41;;;;;;;10.02;6.65;;;;;;;;;;5050030;28;20480;-60
2021/08/29 14:07:07;;;;;;;11.57;7.03;;;;;;;;;;5046814;28;20158;-59
2021/08/29 14:09:32;;;;;;;9.57;6.13;;;;;;;;;;5044526;28;20036;-59
2021/08/29 14:11:57;;;;;;;8.60;5.88;;;;;;;;;;5046559;28;20025;-59
2021/08/29 14:14:23;;;;;;;8.95;6.10;;;;;;;;;;5049721;28;20380;-59
2021/08/29 14:16:49;;;;;;;8.18;5.50;;;;;;;;;;5048623;28;20033;-59
2021/08/29 14:19:14;;;;;;;8.77;5.13;;;;;;;;;;5046949;28;20104;-59
2021/08/29 14:21:40;;;;;;;9.90;6.03;;;;;;;;;;5047175;28;20029;-59
2021/08/29 14:24:06;;;;;;;8.27;5.30;;;;;;;;;;5047067;28;20017;-58
2021/08/29 14:26:31;;;;;;;9.70;4.90;;;;;;;;;;5046645;28;20037;-59
2021/08/29 14:28:56;;;;;;;7.97;4.82;;;;;;;;;;5061211;28;20110;-60
2021/08/29 14:31:22;;;;;;;9.07;4.65;;;;;;;;;;5048063;28;20373;-60
2021/08/29 14:33:47;;;;;;;8.07;5.10;;;;;;;;;;5047880;28;20028;-60
2021/08/29 14:36:13;;;;;;;9.55;5.03;;;;;;;;;;5048823;28;20021;-58
2021/08/29 14:38:38;;;;;;;11.55;6.68;;;;;;;;;;5046926;28;20472;-59
2021/08/29 14:41:04;;;;;;;7.07;4.18;;;;;;;;;;5047876;28;20037;-59